createdAt,value
2023-01-29T00:00:11.775Z,8.98
2023-01-29T00:03:19.349Z,9.15
2023-01-29T00:06:24.252Z,7.65
2023-01-29T00:09:29.050Z,8.70
2023-01-29T00:12:33.577Z,8.02
2023-01-29T00:15:38.094Z,7.88
2023-01-29T00:18:42.946Z,8.13
2023-01-29T00:21:47.437Z,6.47
2023-01-29T00:24:51.961Z,8.05
2023-01-29T00:27:56.532Z,6.78
2023-01-29T00:31:11.997Z,6.45
2023-01-29T00:34:16.695Z,4.85
2023-01-29T00:37:21.188Z,4.50
2023-01-29T00:40:26.745Z,4.43
2023-01-29T00:43:49.679Z,3.67
2023-01-29T00:46:54.787Z,3.60
2023-01-29T00:50:05.047Z,3.15
2023-01-29T00:53:09.790Z,4.22
2023-01-29T00:56:14.316Z,4.07
2023-01-29T00:59:18.846Z,3.63
2023-01-29T01:02:44.514Z,3.70
2023-01-29T01:05:49.181Z,4.13
2023-01-29T01:09:12.239Z,4.03
2023-01-29T01:12:16.733Z,4.38
2023-01-29T01:15:22.843Z,4.00
2023-01-29T01:18:28.923Z,4.18
2023-01-29T01:21:33.456Z,4.07
2023-01-29T01:24:38.391Z,2.92
2023-01-29T01:27:43.017Z,3.50
2023-01-29T01:30:47.569Z,3.47
2023-01-29T01:33:54.245Z,3.88
2023-01-29T01:36:58.819Z,3.78
2023-01-29T01:40:05.717Z,5.10
2023-01-29T01:43:10.945Z,4.82
2023-01-29T01:46:15.440Z,5.47
2023-01-29T01:49:21.615Z,5.88
2023-01-29T01:52:26.188Z,6.55
2023-01-29T01:55:34.332Z,7.88
2023-01-29T01:58:45.282Z,7.00
2023-01-29T02:01:53.942Z,8.32
2023-01-29T02:05:17.392Z,8.23
2023-01-29T02:08:54.511Z,9.02
2023-01-29T02:11:59.141Z,8.98
2023-01-29T02:15:05.164Z,8.27
2023-01-29T02:18:09.869Z,8.63
2023-01-29T02:21:29.052Z,8.18
2023-01-29T02:25:16.167Z,8.07
2023-01-29T02:28:44.001Z,7.25
2023-01-29T02:32:17.476Z,8.15
2023-01-29T02:35:34.593Z,8.43
2023-01-29T02:38:40.905Z,7.38
2023-01-29T02:42:06.409Z,8.38
2023-01-29T02:45:11.650Z,8.02
2023-01-29T02:48:20.550Z,8.57
2023-01-29T02:51:34.096Z,7.75
2023-01-29T02:54:46.830Z,7.40
2023-01-29T02:57:57.701Z,6.45
2023-01-29T03:01:09.597Z,6.15
2023-01-29T03:04:16.016Z,6.28
2023-01-29T03:07:46.785Z,7.10
2023-01-29T03:11:04.387Z,7.22
2023-01-29T03:14:14.457Z,6.63
2023-01-29T03:17:25.422Z,6.53
2023-01-29T03:20:35.336Z,6.15
2023-01-29T03:23:59.309Z,7.38
2023-01-29T03:27:28.830Z,7.38
2023-01-29T03:30:56.277Z,8.07
2023-01-29T03:34:24.168Z,7.78
2023-01-29T03:37:43.551Z,7.60
2023-01-29T03:40:59.693Z,8.20
2023-01-29T03:44:06.954Z,8.05
2023-01-29T03:47:25.260Z,8.90
2023-01-29T03:50:47.700Z,7.57
2023-01-29T03:53:56.170Z,8.30
2023-01-29T03:57:15.980Z,8.65
2023-01-29T04:00:35.853Z,6.47
2023-01-29T04:03:51.585Z,8.30
2023-01-29T04:07:00.610Z,7.00
2023-01-29T04:10:12.891Z,6.88
2023-01-29T04:13:18.500Z,7.10
2023-01-29T04:16:36.815Z,7.38
2023-01-29T04:19:58.980Z,7.65
2023-01-29T04:23:06.884Z,6.57
2023-01-29T04:26:30.514Z,7.05
2023-01-29T04:29:48.551Z,7.57
2023-01-29T04:32:53.884Z,6.32
2023-01-29T04:36:41.337Z,5.63
2023-01-29T04:39:46.909Z,6.07
2023-01-29T04:43:08.444Z,6.90
2023-01-29T04:46:21.164Z,5.75
2023-01-29T04:49:47.059Z,5.63
2023-01-29T04:53:38.319Z,5.18
2023-01-29T04:56:57.537Z,6.50
2023-01-29T05:00:23.992Z,4.97
2023-01-29T05:03:31.285Z,5.57
2023-01-29T05:06:37.889Z,5.97
2023-01-29T05:09:45.196Z,5.55
2023-01-29T05:12:57.959Z,5.38
2023-01-29T05:16:16.973Z,6.20
2023-01-29T05:19:22.964Z,5.20
2023-01-29T05:22:27.705Z,5.43
2023-01-29T05:25:33.561Z,7.18
2023-01-29T05:28:38.101Z,7.10
2023-01-29T05:31:44.725Z,5.65
2023-01-29T05:34:49.356Z,5.40
2023-01-29T05:37:55.980Z,5.00
2023-01-29T05:41:00.572Z,5.10
2023-01-29T05:44:05.216Z,6.28
2023-01-29T05:47:09.725Z,4.10
2023-01-29T05:50:15.847Z,5.25
2023-01-29T05:53:20.624Z,4.78
2023-01-29T05:56:25.458Z,3.70
2023-01-29T05:59:31.187Z,3.03
2023-01-29T06:02:35.761Z,2.67
2023-01-29T06:05:40.615Z,2.67
2023-01-29T06:08:46.927Z,2.53
2023-01-29T06:11:51.412Z,2.60
2023-01-29T06:14:55.984Z,2.85
2023-01-29T06:18:00.560Z,3.05
2023-01-29T06:21:07.617Z,2.58
2023-01-29T06:24:12.190Z,2.92
2023-01-29T06:27:16.756Z,2.95
2023-01-29T06:30:23.368Z,2.80
2023-01-29T06:33:27.926Z,2.75
2023-01-29T06:36:32.536Z,2.80
2023-01-29T06:39:37.058Z,2.72
2023-01-29T06:42:41.597Z,3.90
2023-01-29T06:45:48.473Z,2.85
2023-01-29T06:48:52.983Z,2.40
2023-01-29T06:51:57.703Z,2.72
2023-01-29T06:55:02.178Z,2.40
2023-01-29T06:58:12.043Z,2.80
2023-01-29T07:01:33.404Z,2.80
2023-01-29T07:04:41.469Z,3.17
2023-01-29T07:07:46.122Z,2.67
2023-01-29T07:10:50.680Z,3.28
2023-01-29T07:13:55.215Z,3.05
2023-01-29T07:16:59.836Z,2.45
2023-01-29T07:20:06.080Z,3.05
2023-01-29T07:23:12.880Z,2.92
2023-01-29T07:26:17.450Z,2.70
2023-01-29T07:29:21.986Z,2.28
2023-01-29T07:32:28.909Z,2.80
2023-01-29T07:35:37.107Z,2.42
2023-01-29T07:38:41.786Z,2.60
2023-01-29T07:41:46.329Z,3.10
2023-01-29T07:44:54.168Z,2.40
2023-01-29T07:47:58.788Z,1.80
2023-01-29T07:51:03.332Z,2.50
2023-01-29T07:54:07.862Z,3.22
2023-01-29T07:57:12.887Z,2.75
2023-01-29T08:00:18.118Z,2.08
2023-01-29T08:03:22.928Z,2.10
2023-01-29T08:06:27.487Z,2.78
2023-01-29T08:09:33.155Z,2.30
2023-01-29T08:12:37.728Z,2.60
2023-01-29T08:15:46.075Z,2.72
2023-01-29T08:18:50.616Z,2.50
2023-01-29T08:21:55.166Z,2.50
2023-01-29T08:25:08.217Z,3.00
2023-01-29T08:28:13.091Z,2.40
2023-01-29T08:31:22.735Z,2.30
2023-01-29T08:34:27.468Z,2.60
2023-01-29T08:37:32.016Z,2.30
2023-01-29T08:40:36.590Z,2.35
2023-01-29T08:43:42.940Z,2.63
2023-01-29T08:46:47.472Z,2.47
2023-01-29T08:49:52.061Z,2.13
2023-01-29T08:53:00.627Z,2.42
2023-01-29T08:56:05.392Z,3.28
2023-01-29T08:59:10.552Z,2.13
2023-01-29T09:02:16.953Z,2.30
2023-01-29T09:05:21.552Z,2.30
2023-01-29T09:08:26.180Z,1.50
2023-01-29T09:11:30.654Z,2.13
2023-01-29T09:14:35.483Z,2.80
2023-01-29T09:17:40.918Z,1.77
2023-01-29T09:20:45.503Z,2.10
2023-01-29T09:23:49.978Z,2.42
2023-01-29T09:26:54.472Z,2.30
2023-01-29T09:29:59.110Z,2.10
2023-01-29T09:33:04.915Z,2.70
2023-01-29T09:36:09.571Z,2.78
2023-01-29T09:39:14.132Z,2.63
2023-01-29T09:42:48.786Z,2.75
2023-01-29T09:46:15.044Z,1.80
2023-01-29T09:49:19.524Z,2.67
2023-01-29T09:52:37.701Z,2.60
2023-01-29T09:56:05.998Z,2.50
2023-01-29T09:59:11.887Z,2.92
2023-01-29T10:02:32.312Z,2.53
2023-01-29T10:05:48.149Z,2.20
2023-01-29T10:09:22.284Z,2.08
2023-01-29T10:12:47.593Z,2.70
2023-01-29T10:16:03.209Z,2.60
2023-01-29T10:19:22.738Z,2.33
2023-01-29T10:22:45.150Z,2.45
2023-01-29T10:25:49.901Z,2.63
2023-01-29T10:28:58.525Z,2.72
2023-01-29T10:32:05.919Z,2.80
2023-01-29T10:35:22.013Z,3.05
2023-01-29T10:38:35.783Z,2.45
2023-01-29T10:41:55.490Z,3.22
2023-01-29T10:45:15.555Z,2.92
2023-01-29T10:48:40.356Z,2.85
2023-01-29T10:52:03.185Z,2.83
2023-01-29T10:55:32.712Z,3.03
2023-01-29T10:58:45.512Z,3.45
2023-01-29T11:01:51.372Z,2.88
2023-01-29T11:04:56.070Z,2.85
2023-01-29T11:08:19.709Z,3.20
2023-01-29T11:11:36.131Z,2.88
2023-01-29T11:15:07.069Z,2.97
2023-01-29T11:18:15.308Z,3.30
2023-01-29T11:21:20.272Z,3.92
2023-01-29T11:24:25.958Z,3.22
2023-01-29T11:27:35.301Z,2.95
2023-01-29T11:30:41.686Z,3.42
2023-01-29T11:33:48.224Z,4.45
2023-01-29T11:37:04.498Z,3.13
2023-01-29T11:40:23.915Z,2.85
2023-01-29T11:43:32.204Z,3.03
2023-01-29T11:46:39.749Z,2.97
2023-01-29T11:49:54.837Z,3.33
2023-01-29T11:53:00.248Z,3.88
2023-01-29T11:56:16.595Z,2.97
2023-01-29T11:59:37.702Z,2.60
2023-01-29T12:02:43.896Z,3.10
2023-01-29T12:05:58.814Z,3.42
2023-01-29T12:09:10.857Z,3.53
2023-01-29T12:12:29.398Z,3.57
2023-01-29T12:15:34.052Z,3.65
2023-01-29T12:18:44.150Z,3.28
2023-01-29T12:21:49.121Z,3.67
2023-01-29T12:25:02.032Z,3.67
2023-01-29T12:28:50.565Z,3.83
2023-01-29T12:32:04.816Z,3.28
2023-01-29T12:35:28.381Z,3.25
2023-01-29T12:38:34.086Z,3.45
2023-01-29T12:41:46.141Z,4.43
2023-01-29T12:44:58.649Z,4.83
2023-01-29T12:48:09.905Z,3.70
2023-01-29T12:51:19.292Z,4.80
2023-01-29T12:54:35.024Z,4.03
2023-01-29T12:57:50.586Z,3.70
2023-01-29T13:01:01.357Z,4.65
2023-01-29T13:04:16.685Z,4.20
2023-01-29T13:07:23.708Z,4.28
2023-01-29T13:10:35.633Z,4.03
2023-01-29T13:13:54.007Z,4.20
2023-01-29T13:17:21.361Z,4.85
2023-01-29T13:20:29.135Z,5.20
2023-01-29T13:23:39.379Z,5.35
2023-01-29T13:26:50.549Z,5.93
2023-01-29T13:29:56.469Z,4.45
2023-01-29T13:33:10.513Z,4.72
2023-01-29T13:36:21.881Z,4.78
2023-01-29T13:39:37.891Z,4.53
2023-01-29T13:42:50.335Z,4.38
2023-01-29T13:45:55.007Z,4.95
2023-01-29T13:49:04.870Z,4.72
2023-01-29T13:52:10.879Z,4.47
2023-01-29T13:55:15.684Z,4.82
2023-01-29T13:58:32.256Z,4.30
2023-01-29T14:01:48.951Z,4.63
2023-01-29T14:05:30.521Z,4.03
2023-01-29T14:08:35.139Z,4.70
2023-01-29T14:11:48.312Z,4.25
2023-01-29T14:14:56.549Z,4.57
2023-01-29T14:18:25.161Z,4.38
2023-01-29T14:21:32.780Z,5.03
2023-01-29T14:24:37.400Z,3.97
2023-01-29T14:27:47.494Z,4.15
2023-01-29T14:30:52.571Z,3.47
2023-01-29T14:34:02.358Z,6.00
2023-01-29T14:37:15.867Z,4.10
2023-01-29T14:40:25.812Z,6.13
2023-01-29T14:43:30.406Z,3.92
2023-01-29T14:46:35.264Z,3.72
2023-01-29T14:49:50.934Z,4.10
2023-01-29T14:53:22.954Z,4.53
2023-01-29T14:56:32.546Z,3.67
2023-01-29T14:59:47.204Z,3.97
2023-01-29T15:03:01.321Z,3.80
2023-01-29T15:06:09.751Z,3.83
2023-01-29T15:09:42.940Z,4.57
2023-01-29T15:12:56.356Z,4.88
2023-01-29T15:16:15.967Z,4.65
2023-01-29T15:19:29.771Z,4.13
2023-01-29T15:22:42.709Z,4.28
2023-01-29T15:29:04.140Z,4.03
2023-01-29T15:32:16.916Z,4.18
2023-01-29T15:35:34.175Z,4.10
2023-01-29T15:38:38.660Z,4.72
2023-01-29T15:41:43.973Z,4.72
2023-01-29T15:44:48.523Z,3.55
2023-01-29T15:48:01.728Z,4.30
2023-01-29T15:54:16.059Z,3.97
2023-01-29T15:57:25.558Z,5.93
2023-01-29T16:00:33.374Z,6.93
2023-01-29T16:03:38.225Z,4.40
2023-01-29T16:06:43.524Z,4.93
2023-01-29T16:09:49.255Z,5.68
2023-01-29T16:12:54.435Z,3.92
2023-01-29T16:16:23.805Z,4.03
2023-01-29T16:19:29.479Z,4.35
2023-01-29T16:22:36.865Z,4.88
2023-01-29T16:25:41.452Z,4.65
2023-01-29T16:28:46.934Z,4.65
2023-01-29T16:31:53.082Z,4.75
2023-01-29T16:34:59.953Z,21.33
2023-01-29T16:38:23.325Z,6.47
2023-01-29T16:41:30.907Z,5.53
2023-01-29T16:44:37.478Z,4.82
2023-01-29T16:47:42.051Z,4.68
2023-01-29T16:50:55.055Z,4.43
2023-01-29T16:54:18.209Z,4.50
2023-01-29T16:57:25.861Z,4.47
2023-01-29T17:00:31.470Z,5.07
2023-01-29T17:03:37.267Z,4.32
2023-01-29T17:06:46.882Z,4.60
2023-01-29T17:09:55.638Z,4.43
2023-01-29T17:13:14.805Z,5.32
2023-01-29T17:16:19.315Z,4.88
2023-01-29T17:19:25.277Z,4.97
2023-01-29T17:22:30.923Z,5.57
2023-01-29T17:25:35.729Z,6.03
2023-01-29T17:28:44.467Z,5.72
2023-01-29T17:31:49.100Z,4.90
2023-01-29T17:34:53.577Z,5.00
2023-01-29T17:37:58.421Z,5.57
2023-01-29T17:41:05.114Z,5.00
2023-01-29T17:44:09.765Z,5.53
2023-01-29T17:47:15.362Z,5.53
2023-01-29T17:50:24.540Z,5.22
2023-01-29T17:53:44.215Z,5.25
2023-01-29T17:56:50.389Z,4.78
2023-01-29T17:59:54.904Z,4.78
2023-01-29T18:03:02.365Z,4.85
2023-01-29T18:06:09.004Z,5.25
2023-01-29T18:09:15.676Z,5.43
2023-01-29T18:12:20.210Z,5.13
2023-01-29T18:15:24.746Z,5.20
2023-01-29T18:18:30.092Z,4.63
2023-01-29T18:21:34.657Z,5.85
2023-01-29T18:24:39.232Z,4.85
2023-01-29T18:27:46.249Z,5.78
2023-01-29T18:30:50.968Z,5.97
2023-01-29T18:33:55.483Z,5.80
2023-01-29T18:37:00.268Z,5.60
2023-01-29T18:40:05.830Z,5.28
2023-01-29T18:43:10.315Z,5.47
2023-01-29T18:46:14.928Z,5.68
2023-01-29T18:49:20.885Z,6.63
2023-01-29T18:52:26.168Z,5.53
2023-01-29T18:55:30.704Z,5.55
2023-01-29T18:58:36.656Z,6.28
2023-01-29T19:01:41.498Z,6.88
2023-01-29T19:04:46.694Z,5.97
2023-01-29T19:07:52.120Z,6.20
2023-01-29T19:10:57.734Z,6.18
2023-01-29T19:14:02.345Z,6.30
2023-01-29T19:17:07.207Z,6.88
2023-01-29T19:20:12.252Z,6.82
2023-01-29T19:23:16.757Z,7.82
2023-01-29T19:26:21.403Z,7.15
2023-01-29T19:29:25.961Z,7.22
2023-01-29T19:32:30.524Z,8.13
2023-01-29T19:35:35.056Z,7.50
2023-01-29T19:38:39.830Z,7.05
2023-01-29T19:41:44.399Z,7.70
2023-01-29T19:44:50.588Z,8.95
2023-01-29T19:47:55.143Z,8.88
2023-01-29T19:51:05.150Z,7.63
2023-01-29T19:54:09.927Z,7.80
2023-01-29T19:57:14.394Z,6.57
2023-01-29T20:00:19.625Z,6.97
2023-01-29T20:03:24.828Z,6.57
2023-01-29T20:06:33.144Z,6.55
2023-01-29T20:09:37.683Z,6.15
2023-01-29T20:12:44.744Z,6.72
2023-01-29T20:15:50.662Z,6.63
2023-01-29T20:18:55.256Z,7.25
2023-01-29T20:22:19.242Z,7.20
2023-01-29T20:25:23.776Z,8.32
2023-01-29T20:28:28.397Z,6.28
2023-01-29T20:31:34.178Z,6.20
2023-01-29T20:34:38.670Z,6.85
2023-01-29T20:37:43.188Z,6.28
2023-01-29T20:40:47.683Z,7.20
2023-01-29T20:43:52.235Z,7.25
2023-01-29T20:47:01.705Z,8.05
2023-01-29T20:50:10.586Z,7.32
2023-01-29T20:53:15.064Z,6.75
2023-01-29T20:56:23.108Z,6.85
2023-01-29T20:59:38.758Z,6.43
2023-01-29T21:02:45.676Z,8.00
2023-01-29T21:05:51.490Z,6.97
2023-01-29T21:08:56.049Z,8.18
2023-01-29T21:12:00.553Z,8.43
2023-01-29T21:15:05.432Z,7.53
2023-01-29T21:18:10.454Z,9.32
2023-01-29T21:21:16.076Z,8.48
2023-01-29T21:24:20.573Z,7.50
2023-01-29T21:27:25.593Z,8.18
2023-01-29T21:30:30.363Z,8.60
2023-01-29T21:33:35.077Z,8.18
2023-01-29T21:36:39.668Z,9.30
2023-01-29T21:39:44.340Z,7.70
2023-01-29T21:43:07.368Z,8.30
2023-01-29T21:46:12.246Z,8.35
2023-01-29T21:49:16.998Z,8.73
2023-01-29T21:52:21.527Z,8.60
2023-01-29T21:55:26.040Z,9.60
2023-01-29T21:58:32.816Z,10.05
2023-01-29T22:01:38.887Z,8.75
2023-01-29T22:04:43.670Z,7.97
2023-01-29T22:07:49.626Z,10.30
2023-01-29T22:10:54.380Z,10.10
2023-01-29T22:13:59.365Z,9.57
2023-01-29T22:17:04.011Z,10.10
2023-01-29T22:20:13.469Z,9.10
2023-01-29T22:23:18.082Z,10.07
2023-01-29T22:26:22.663Z,9.38
2023-01-29T22:29:27.147Z,10.38
2023-01-29T22:32:32.564Z,10.93
2023-01-29T22:35:37.315Z,10.57
2023-01-29T22:38:42.925Z,10.27
2023-01-29T22:41:47.965Z,10.63
2023-01-29T22:44:52.461Z,10.98
2023-01-29T22:47:58.094Z,9.52
2023-01-29T22:51:11.826Z,9.98
2023-01-29T22:54:16.470Z,10.65
2023-01-29T22:57:21.253Z,10.48
2023-01-29T23:00:26.064Z,10.45
2023-01-29T23:03:31.919Z,10.23
2023-01-29T23:06:36.405Z,10.20
2023-01-29T23:09:40.996Z,9.63
2023-01-29T23:12:45.497Z,10.27
2023-01-29T23:15:59.300Z,10.07
2023-01-29T23:19:03.883Z,9.63
2023-01-29T23:22:08.393Z,9.63
2023-01-29T23:25:13.071Z,9.35
2023-01-29T23:28:18.864Z,9.07
2023-01-29T23:31:23.492Z,9.13
2023-01-29T23:34:28.023Z,10.70
2023-01-29T23:37:32.558Z,9.25
2023-01-29T23:40:37.146Z,9.23
2023-01-29T23:43:41.721Z,10.75
2023-01-29T23:46:46.397Z,10.75
2023-01-29T23:49:52.699Z,10.50
2023-01-29T23:52:57.316Z,9.80
2023-01-29T23:56:04.295Z,10.18
2023-01-29T23:59:08.832Z,10.02
